Time;durP1;ratioP1;P1;durP2;ratioP2;P2;SDS_P1;SDS_P2;PMS_P1;PMS_P2;Temp;Humidity;BMP_temperature;BMP_pressure;BME280_temperature;BME280_humidity;BME280_pressure;Samples;Min_cycle;Max_cycle;Signal;HPM_P1;HPM_P2
2022/06/25 00:02:05;;;;;;;7.90;6.88;;;19.10;99.90;;;;;;5040510;28;20538;-80
2022/06/25 00:07:17;;;;;;;6.75;6.10;;;19.00;99.90;;;;;;5031461;28;20257;-81
2022/06/25 00:09:44;;;;;;;9.38;5.70;;;19.00;99.90;;;;;;5038952;28;20212;-81
2022/06/25 00:14:56;;;;;;;7.05;6.32;;;18.90;99.90;;;;;;5036302;28;20214;-79
2022/06/25 00:17:23;;;;;;;7.18;6.30;;;18.90;99.90;;;;;;5038242;28;20284;-80
2022/06/25 00:19:50;;;;;;;8.95;6.90;;;18.90;99.90;;;;;;5068741;28;20694;-80
2022/06/25 00:22:17;;;;;;;6.90;6.30;;;18.80;99.90;;;;;;5036900;28;20798;-80
2022/06/25 00:24:43;;;;;;;7.40;6.00;;;18.80;99.90;;;;;;5038148;28;20279;-81
2022/06/25 00:27:10;;;;;;;8.13;6.90;;;18.80;99.90;;;;;;5035342;28;20670;-80
2022/06/25 00:29:37;;;;;;;7.78;6.97;;;18.90;99.90;;;;;;5038041;28;20261;-82
2022/06/25 00:32:04;;;;;;;6.82;6.05;;;18.80;99.90;;;;;;5035558;28;20201;-81
2022/06/25 00:34:31;;;;;;;11.73;7.25;;;18.80;99.90;;;;;;5037560;28;20253;-79
2022/06/25 00:36:58;;;;;;;8.48;7.47;;;18.80;99.90;;;;;;5043291;28;20217;-80
2022/06/25 00:39:25;;;;;;;8.32;7.18;;;18.70;99.90;;;;;;5036594;28;20209;-79
2022/06/25 00:41:52;;;;;;;9.25;7.75;;;18.80;99.90;;;;;;5035446;28;20209;-80
2022/06/25 00:44:19;;;;;;;7.85;7.05;;;18.70;99.90;;;;;;5038560;28;20233;-79
2022/06/25 00:46:47;;;;;;;7.50;6.80;;;18.60;99.90;;;;;;5037070;28;20206;-80
2022/06/25 00:49:14;;;;;;;8.25;7.40;;;18.70;99.90;;;;;;5037763;28;20253;-79
2022/06/25 00:51:43;;;;;;;8.02;7.32;;;18.60;99.90;;;;;;5038122;28;20220;-79
2022/06/25 00:54:10;;;;;;;9.27;7.63;;;18.60;99.90;;;;;;5036151;28;20990;-80
2022/06/25 00:56:39;;;;;;;8.60;7.35;;;18.60;99.90;;;;;;5035364;28;20214;-81
2022/06/25 00:59:06;;;;;;;8.13;7.32;;;18.60;99.90;;;;;;5037766;28;20673;-80
2022/06/25 01:01:34;;;;;;;8.43;7.57;;;18.50;99.90;;;;;;5038534;28;20241;-80
2022/06/25 01:04:02;;;;;;;8.40;7.60;;;18.50;99.90;;;;;;5036710;28;20289;-79
2022/06/25 01:06:30;;;;;;;7.95;7.22;;;18.50;99.90;;;;;;5033893;28;20718;-81
2022/06/25 01:08:57;;;;;;;8.15;7.15;;;18.50;99.90;;;;;;5035169;28;20209;-80
2022/06/25 01:11:25;;;;;;;8.63;7.78;;;18.50;99.90;;;;;;5036615;28;20241;-79
2022/06/25 01:13:52;;;;;;;7.93;7.18;;;18.50;99.90;;;;;;5038617;28;20217;-79
2022/06/25 01:16:21;;;;;;;8.50;7.70;;;18.50;99.90;;;;;;5036951;28;20217;-79
2022/06/25 01:18:49;;;;;;;8.43;7.57;;;18.50;99.90;;;;;;5038971;28;20352;-81
2022/06/25 01:21:16;;;;;;;9.23;7.97;;;18.40;99.90;;;;;;5038563;28;20276;-80
2022/06/25 01:23:43;;;;;;;9.60;8.38;;;18.40;99.90;;;;;;5041121;28;20319;-81
2022/06/25 01:26:10;;;;;;;9.83;8.53;;;18.50;99.90;;;;;;5040260;28;20608;-81
2022/06/25 01:28:36;;;;;;;9.90;8.13;;;18.40;99.90;;;;;;5040192;28;20213;-80
2022/06/25 01:31:03;;;;;;;11.63;8.63;;;18.30;99.90;;;;;;5040818;28;20228;-80
2022/06/25 01:33:30;;;;;;;9.68;8.40;;;18.30;99.90;;;;;;5039332;28;20346;-79
2022/06/25 01:35:57;;;;;;;10.73;9.15;;;18.30;99.90;;;;;;5043886;28;20259;-81
2022/06/25 01:38:25;;;;;;;10.20;9.20;;;18.20;99.90;;;;;;5040163;28;20225;-80
2022/06/25 01:40:52;;;;;;;12.13;9.70;;;18.20;99.90;;;;;;5040398;28;20212;-80
2022/06/25 01:43:19;;;;;;;10.37;9.43;;;18.20;99.90;;;;;;5041459;28;20359;-79
2022/06/25 01:45:46;;;;;;;10.87;9.73;;;18.20;99.90;;;;;;5039159;28;20628;-81
2022/06/25 01:48:13;;;;;;;11.13;10.03;;;18.10;99.90;;;;;;5042010;28;20647;-80
2022/06/25 01:50:40;;;;;;;13.07;9.98;;;18.10;99.90;;;;;;5038785;28;20217;-80
2022/06/25 01:53:07;;;;;;;16.63;10.85;;;18.10;99.90;;;;;;5072844;28;20626;-79
2022/06/25 01:55:34;;;;;;;10.63;9.63;;;18.10;99.90;;;;;;5037920;28;20567;-79
2022/06/25 01:58:02;;;;;;;12.63;10.07;;;18.00;99.90;;;;;;5041090;28;20213;-80
2022/06/25 02:00:31;;;;;;;11.68;10.02;;;18.10;99.90;;;;;;5036926;28;20589;-81
2022/06/25 02:02:59;;;;;;;10.63;9.60;;;18.00;99.90;;;;;;5037717;28;20239;-78
2022/06/25 02:08:15;;;;;;;10.47;9.47;;;17.90;99.90;;;;;;5037507;28;20273;-78
2022/06/25 02:10:43;;;;;;;13.20;10.43;;;17.90;99.90;;;;;;5039574;28;20214;-80
2022/06/25 02:13:10;;;;;;;14.93;10.87;;;17.90;99.90;;;;;;5042151;28;20205;-78
2022/06/25 02:15:37;;;;;;;12.17;10.47;;;17.80;99.90;;;;;;5038293;28;20217;-79
2022/06/25 02:18:04;;;;;;;12.88;10.80;;;17.80;99.90;;;;;;5035719;28;20251;-79
2022/06/25 02:20:31;;;;;;;14.80;10.43;;;17.80;99.90;;;;;;5046725;28;20233;-80
2022/06/25 02:22:58;;;;;;;13.23;10.23;;;17.80;99.90;;;;;;5035469;28;20202;-81
2022/06/25 02:25:25;;;;;;;12.03;10.07;;;17.80;99.90;;;;;;5041268;28;20275;-80
2022/06/25 02:27:52;;;;;;;14.85;10.93;;;17.70;99.90;;;;;;5038011;28;20234;-81
2022/06/25 02:30:19;;;;;;;13.03;10.13;;;17.70;99.90;;;;;;5037981;28;20225;-80
2022/06/25 02:32:46;;;;;;;13.17;11.13;;;17.70;99.90;;;;;;5041042;28;20225;-80
2022/06/25 02:35:13;;;;;;;13.13;10.70;;;17.70;99.90;;;;;;5037228;28;20628;-80
2022/06/25 02:37:40;;;;;;;11.95;10.75;;;17.70;99.90;;;;;;5039405;28;20212;-80
2022/06/25 02:40:07;;;;;;;12.15;10.50;;;17.70;99.90;;;;;;5039047;28;20658;-79
2022/06/25 02:42:36;;;;;;;11.17;9.80;;;17.60;99.90;;;;;;5037772;28;20344;-80
2022/06/25 02:45:03;;;;;;;11.77;10.60;;;17.60;99.90;;;;;;5039629;28;20313;-80
2022/06/25 02:47:30;;;;;;;12.13;10.97;;;17.60;99.90;;;;;;5028651;28;20283;-80
2022/06/25 02:49:58;;;;;;;12.53;9.97;;;17.60;99.90;;;;;;5028675;28;20244;-80
2022/06/25 02:52:25;;;;;;;13.60;10.50;;;17.60;99.90;;;;;;5030075;28;20228;-81
2022/06/25 02:54:52;;;;;;;12.93;11.03;;;17.60;99.90;;;;;;5041042;28;20221;-80
2022/06/25 03:00:06;;;;;;;13.73;10.57;;;17.50;99.90;;;;;;5038151;28;20531;-80
2022/06/25 03:02:33;;;;;;;12.17;10.33;;;17.50;99.90;;;;;;5039711;28;20615;-79
2022/06/25 03:05:00;;;;;;;12.53;11.03;;;17.50;99.90;;;;;;5039587;28;20295;-80
2022/06/25 03:07:27;;;;;;;13.03;10.20;;;17.50;99.90;;;;;;5037100;28;20216;-79
2022/06/25 03:09:54;;;;;;;13.40;11.13;;;17.50;99.90;;;;;;5039099;28;20212;-80
2022/06/25 03:12:20;;;;;;;11.30;9.60;;;17.50;99.90;;;;;;5038380;28;20677;-80
2022/06/25 03:14:47;;;;;;;12.67;9.80;;;17.40;99.90;;;;;;5037619;28;20240;-78
2022/06/25 03:17:14;;;;;;;12.07;10.13;;;17.50;99.90;;;;;;5039988;28;20205;-81
2022/06/25 03:19:41;;;;;;;12.67;9.90;;;17.50;99.90;;;;;;5035868;28;20210;-79
2022/06/25 03:22:08;;;;;;;11.03;9.47;;;17.50;99.90;;;;;;5040402;28;20259;-80
2022/06/25 03:24:34;;;;;;;12.73;10.20;;;17.40;99.90;;;;;;5039232;28;20260;-80
2022/06/25 03:27:01;;;;;;;12.87;9.60;;;17.40;99.90;;;;;;5036181;28;20205;-79
2022/06/25 03:29:28;;;;;;;10.00;9.00;;;17.40;99.90;;;;;;5038752;28;20213;-79
2022/06/25 03:31:56;;;;;;;10.67;8.83;;;17.40;99.90;;;;;;5037285;28;20205;-81
2022/06/25 03:34:22;;;;;;;12.33;8.60;;;17.40;99.90;;;;;;5039563;28;20382;-79
2022/06/25 03:36:49;;;;;;;9.07;8.17;;;17.40;99.90;;;;;;5036501;28;20213;-80
2022/06/25 03:39:16;;;;;;;8.37;7.43;;;17.40;99.90;;;;;;5036401;28;20263;-79
2022/06/25 03:41:43;;;;;;;7.60;6.73;;;17.40;99.90;;;;;;5038469;28;20275;-80
2022/06/25 03:44:11;;;;;;;9.50;7.60;;;17.40;99.90;;;;;;5037473;28;20244;-81
2022/06/25 03:46:39;;;;;;;12.25;7.45;;;17.50;99.90;;;;;;5036614;28;20228;-80
2022/06/25 03:49:07;;;;;;;8.88;7.50;;;17.50;99.90;;;;;;5036001;28;20367;-79
2022/06/25 03:51:34;;;;;;;9.03;6.50;;;17.50;99.90;;;;;;5039307;28;20209;-80
2022/06/25 03:54:00;;;;;;;8.65;6.18;;;17.60;99.90;;;;;;5038333;28;20205;-79
2022/06/25 03:56:27;;;;;;;8.20;6.10;;;17.60;99.90;;;;;;5038257;28;20663;-81
2022/06/25 03:58:54;;;;;;;8.20;6.27;;;17.60;99.90;;;;;;5035520;28;20728;-80
2022/06/25 04:01:23;;;;;;;6.70;5.93;;;17.60;99.90;;;;;;5042518;28;20728;-80
2022/06/25 04:03:51;;;;;;;7.63;5.78;;;17.70;99.90;;;;;;5035974;28;20275;-80
2022/06/25 04:06:18;;;;;;;7.73;6.10;;;17.70;99.90;;;;;;5038070;28;20240;-80
2022/06/25 04:08:45;;;;;;;6.10;5.40;;;17.70;99.90;;;;;;5037573;28;20282;-79
2022/06/25 04:11:12;;;;;;;7.63;5.30;;;17.70;99.90;;;;;;5035665;28;20213;-80
2022/06/25 04:13:39;;;;;;;8.57;5.13;;;17.70;99.90;;;;;;5039018;28;20266;-79
2022/06/25 04:16:05;;;;;;;8.40;5.20;;;17.80;99.90;;;;;;5035360;28;20279;-79
2022/06/25 04:18:32;;;;;;;7.28;5.60;;;17.90;99.90;;;;;;5038480;28;20225;-79
2022/06/25 04:20:59;;;;;;;6.07;4.90;;;17.90;99.90;;;;;;5034764;28;20210;-81
2022/06/25 04:23:27;;;;;;;9.03;5.70;;;17.90;99.90;;;;;;5037265;28;20591;-81
2022/06/25 04:25:54;;;;;;;8.33;5.50;;;18.00;99.90;;;;;;5036464;28;20732;-80
2022/06/25 04:31:07;;;;;;;9.67;6.20;;;18.00;99.90;;;;;;5037738;28;20266;-79
2022/06/25 04:33:34;;;;;;;6.32;5.55;;;18.00;99.90;;;;;;5035927;28;20574;-79
2022/06/25 04:36:01;;;;;;;6.28;5.07;;;18.10;99.90;;;;;;5039362;28;20201;-79
2022/06/25 04:38:28;;;;;;;5.95;4.90;;;18.00;99.90;;;;;;5031681;28;20308;-80
2022/06/25 04:40:54;;;;;;;5.35;4.75;;;18.00;99.90;;;;;;5037643;28;20692;-80
2022/06/25 04:43:21;;;;;;;9.27;5.45;;;18.10;99.90;;;;;;5037229;28;20205;-81
2022/06/25 04:45:48;;;;;;;8.32;4.90;;;18.10;99.90;;;;;;5035695;28;20229;-80
2022/06/25 04:48:16;;;;;;;5.65;5.03;;;18.10;99.90;;;;;;5036010;28;20280;-79
2022/06/25 04:50:44;;;;;;;6.88;4.82;;;18.20;99.90;;;;;;5027174;28;20724;-81
2022/06/25 04:53:12;;;;;;;8.48;4.72;;;18.20;99.90;;;;;;5028091;28;20209;-80
2022/06/25 04:55:39;;;;;;;7.20;4.93;;;18.20;99.90;;;;;;5029473;28;20271;-80
2022/06/25 04:58:06;;;;;;;4.97;4.40;;;18.30;99.90;;;;;;5031251;28;20272;-79
2022/06/25 05:00:32;;;;;;;5.45;4.53;;;18.30;99.90;;;;;;5031920;28;20290;-81
2022/06/25 05:03:06;;;;;;;7.65;4.70;;;18.40;99.90;;;;;;5040009;28;20229;-80
2022/06/25 05:05:33;;;;;;;6.72;4.03;;;18.50;99.90;;;;;;5041406;28;20255;-80
2022/06/25 05:08:02;;;;;;;5.82;4.45;;;18.50;99.90;;;;;;5039581;28;20305;-80
2022/06/25 05:10:29;;;;;;;5.03;4.30;;;18.60;99.90;;;;;;5040445;28;20275;-80
2022/06/25 05:13:14;;;;;;;6.30;4.32;;;18.60;99.90;;;;;;5043120;28;20209;-80
2022/06/25 05:15:42;;;;;;;4.65;4.15;;;18.70;99.90;;;;;;5041627;28;20270;-80
2022/06/25 05:18:11;;;;;;;5.63;4.13;;;18.80;99.90;;;;;;5038659;28;20221;-80
2022/06/25 05:20:39;;;;;;;4.43;3.80;;;18.80;99.90;;;;;;5039599;28;20290;-81
2022/06/25 05:23:07;;;;;;;6.97;4.63;;;18.90;99.90;;;;;;5040279;28;20233;-80
2022/06/25 05:25:35;;;;;;;6.13;4.00;;;19.00;99.90;;;;;;5040418;28;20240;-79
2022/06/25 05:28:02;;;;;;;4.38;3.30;;;19.50;99.90;;;;;;5043910;28;20273;-80
2022/06/25 05:30:29;;;;;;;3.88;3.13;;;20.40;99.90;;;;;;5038882;28;20259;-79
2022/06/25 05:32:57;;;;;;;6.05;3.30;;;21.50;99.90;;;;;;5039210;28;20610;-80
2022/06/25 05:35:24;;;;;;;4.88;2.90;;;22.50;99.90;;;;;;5040566;28;20213;-80
2022/06/25 05:37:51;;;;;;;4.93;3.63;;;23.40;99.90;;;;;;5037727;28;20209;-80
2022/06/25 05:40:18;;;;;;;3.40;3.05;;;24.00;99.90;;;;;;5040650;28;20253;-79
2022/06/25 05:42:45;;;;;;;3.88;2.50;;;24.90;99.90;;;;;;5053198;28;20251;-80
2022/06/25 05:45:13;;;;;;;3.78;2.70;;;25.80;99.90;;;;;;5041718;28;20233;-79
2022/06/25 05:47:39;;;;;;;2.80;2.10;;;26.50;99.90;;;;;;5038930;28;20234;-78
2022/06/25 05:50:07;;;;;;;2.67;2.08;;;27.20;99.90;;;;;;5040332;28;20691;-80
2022/06/25 05:52:34;;;;;;;2.58;1.80;;;28.10;99.90;;;;;;5040292;28;20241;-79
2022/06/25 05:55:03;;;;;;;4.97;2.08;;;28.80;99.90;;;;;;5038241;28;20209;-77
2022/06/25 05:57:30;;;;;;;3.42;2.20;;;29.30;99.90;;;;;;5041672;28;20209;-78
2022/06/25 05:59:57;;;;;;;1.92;1.63;;;29.80;99.90;;;;;;5038540;28;20297;-78
2022/06/25 06:02:26;;;;;;;4.15;1.63;;;30.10;99.90;;;;;;5043027;28;20228;-81
2022/06/25 06:04:54;;;;;;;2.42;1.80;;;30.20;99.90;;;;;;5039621;28;20245;-79
2022/06/25 06:07:21;;;;;;;4.65;2.00;;;30.50;99.90;;;;;;5037753;28;20666;-80
2022/06/25 06:09:49;;;;;;;4.20;1.80;;;30.70;99.90;;;;;;5041116;28;20696;-79
2022/06/25 06:12:16;;;;;;;4.18;1.58;;;30.80;99.90;;;;;;5036595;28;20336;-80
2022/06/25 06:14:43;;;;;;;2.88;1.70;;;30.70;99.90;;;;;;5041073;28;20228;-79
2022/06/25 06:17:10;;;;;;;3.97;1.80;;;30.00;99.90;;;;;;5039401;28;20243;-79
2022/06/25 06:19:37;;;;;;;3.67;1.92;;;29.20;99.90;;;;;;5039747;28;20217;-79
2022/06/25 06:22:04;;;;;;;3.83;2.05;;;28.50;99.90;;;;;;5035109;28;20586;-79
2022/06/25 06:24:31;;;;;;;3.05;1.95;;;27.90;99.90;;;;;;5040830;28;20678;-79
2022/06/25 06:26:57;;;;;;;3.90;1.60;;;27.20;99.90;;;;;;5040718;28;20206;-78
2022/06/25 06:29:24;;;;;;;2.42;2.00;;;27.00;99.90;;;;;;5038262;28;20820;-80
2022/06/25 06:31:51;;;;;;;2.40;1.75;;;27.20;99.90;;;;;;5039319;28;20217;-79
2022/06/25 06:34:19;;;;;;;3.75;1.77;;;27.60;99.90;;;;;;5039417;28;20291;-80
2022/06/25 06:36:46;;;;;;;3.45;1.60;;;28.20;99.90;;;;;;5041064;28;20746;-79
2022/06/25 06:39:13;;;;;;;2.85;1.75;;;28.60;99.90;;;;;;5037325;28;20213;-78
2022/06/25 06:41:40;;;;;;;3.75;1.77;;;28.80;99.90;;;;;;5037785;28;20239;-78
2022/06/25 06:44:07;;;;;;;6.20;2.22;;;29.00;99.90;;;;;;5038225;28;20217;-80
2022/06/25 06:46:39;;;;;;;2.05;1.50;;;29.30;99.90;;;;;;5038944;28;20711;-82
2022/06/25 06:49:06;;;;;;;2.53;1.60;;;29.60;99.90;;;;;;5036969;28;20252;-79
2022/06/25 06:51:32;;;;;;;3.83;1.88;;;29.60;99.90;;;;;;5041446;28;20362;-77
2022/06/25 06:53:59;;;;;;;4.75;2.08;;;30.00;99.90;;;;;;5038182;28;20291;-80
2022/06/25 06:56:26;;;;;;;2.97;1.88;;;30.40;99.80;;;;;;5038973;28;20238;-79
2022/06/25 06:58:53;;;;;;;2.83;1.95;;;30.60;99.10;;;;;;5038405;28;20659;-78
2022/06/25 07:01:20;;;;;;;2.70;1.75;;;30.70;98.90;;;;;;5037569;28;20556;-78
2022/06/25 07:03:47;;;;;;;2.92;1.55;;;30.70;98.20;;;;;;5039661;28;20241;-79
2022/06/25 07:06:16;;;;;;;4.35;1.90;;;30.80;98.30;;;;;;5036412;28;20480;-78
2022/06/25 07:08:43;;;;;;;3.13;1.63;;;31.00;97.30;;;;;;5039167;28;20607;-78
2022/06/25 07:11:28;;;;;;;1.83;1.52;;;30.50;97.30;;;;;;5037352;28;20210;-79
2022/06/25 07:14:00;;;;;;;1.85;1.60;;;30.60;97.40;;;;;;5037280;28;20242;-79
2022/06/25 07:16:28;;;;;;;2.40;1.67;;;30.60;96.90;;;;;;5038117;28;20206;-80
2022/06/25 07:18:57;;;;;;;4.03;1.83;;;30.70;97.80;;;;;;5038994;28;20221;-80
2022/06/25 07:21:25;;;;;;;2.22;1.83;;;30.20;97.10;;;;;;5034491;28;20637;-79
2022/06/25 07:23:55;;;;;;;4.03;1.98;;;29.70;97.60;;;;;;5034851;28;20289;-80
2022/06/25 07:26:23;;;;;;;1.60;1.50;;;29.50;98.20;;;;;;5037688;28;20247;-80
2022/06/25 07:28:54;;;;;;;3.03;1.77;;;29.90;98.50;;;;;;5038513;28;20217;-80
2022/06/25 07:31:30;;;;;;;4.57;1.85;;;30.30;98.10;;;;;;5036285;28;20260;-79
2022/06/25 07:33:57;;;;;;;4.30;2.40;;;31.00;97.00;;;;;;5037795;28;20235;-79
2022/06/25 07:36:24;;;;;;;3.80;1.77;;;31.50;96.60;;;;;;5038064;28;20308;-80
2022/06/25 07:38:52;;;;;;;3.72;2.00;;;31.90;96.00;;;;;;5038952;28;20241;-81
2022/06/25 07:41:19;;;;;;;3.40;1.80;;;32.00;95.20;;;;;;5035760;28;20232;-80
2022/06/25 07:43:45;;;;;;;2.63;1.60;;;31.90;94.80;;;;;;5037114;28;20212;-79
2022/06/25 07:46:12;;;;;;;3.80;1.80;;;31.60;94.60;;;;;;5035558;28;20237;-79
2022/06/25 07:48:39;;;;;;;3.08;1.60;;;31.20;94.80;;;;;;5037698;28;20300;-78
2022/06/25 07:53:51;;;;;;;5.65;1.90;;;31.00;95.40;;;;;;5037019;28;20260;-78
2022/06/25 07:56:18;;;;;;;3.20;1.58;;;31.20;95.60;;;;;;5037176;28;20209;-79
2022/06/25 07:58:45;;;;;;;2.67;1.45;;;31.60;94.80;;;;;;5038696;28;20665;-79
2022/06/25 08:01:12;;;;;;;4.65;1.65;;;31.80;94.30;;;;;;5039473;28;20610;-80
2022/06/25 08:03:39;;;;;;;2.13;1.65;;;31.70;93.80;;;;;;5034113;28;20320;-80
2022/06/25 08:06:06;;;;;;;3.63;2.33;;;31.50;94.10;;;;;;5038228;28;20244;-80
2022/06/25 08:08:33;;;;;;;2.30;1.52;;;31.40;94.40;;;;;;5037197;28;20620;-78
2022/06/25 08:11:00;;;;;;;4.50;1.40;;;31.10;94.10;;;;;;5036703;28;20286;-80
2022/06/25 08:13:27;;;;;;;2.47;1.65;;;31.00;94.00;;;;;;5037771;28;20201;-79
2022/06/25 08:15:54;;;;;;;4.32;1.50;;;31.00;94.40;;;;;;5035626;28;20221;-80
2022/06/25 08:18:22;;;;;;;4.75;1.50;;;31.40;94.60;;;;;;5038205;28;20225;-79
2022/06/25 08:20:49;;;;;;;2.40;1.45;;;31.70;94.00;;;;;;5035705;28;20279;-79
2022/06/25 08:23:16;;;;;;;3.97;1.75;;;32.00;93.80;;;;;;5037329;28;20260;-79
2022/06/25 08:25:43;;;;;;;1.80;1.23;;;32.30;93.30;;;;;;5035705;28;20240;-79
2022/06/25 08:28:10;;;;;;;1.45;1.20;;;32.40;92.90;;;;;;5041892;28;20204;-79
2022/06/25 08:30:39;;;;;;;2.65;1.40;;;32.50;92.50;;;;;;5035013;28;20209;-78
2022/06/25 08:33:06;;;;;;;2.22;1.50;;;32.40;92.30;;;;;;5038064;28;20278;-78
2022/06/25 08:35:33;;;;;;;3.88;1.52;;;32.20;92.00;;;;;;5036926;28;20218;-80
2022/06/25 08:37:59;;;;;;;2.70;1.40;;;31.80;92.20;;;;;;5037247;28;20209;-80
2022/06/25 08:40:26;;;;;;;2.92;1.55;;;31.50;92.80;;;;;;5039281;28;20224;-79
2022/06/25 08:42:53;;;;;;;3.65;1.70;;;31.30;93.00;;;;;;5035414;28;20213;-79
2022/06/25 08:45:20;;;;;;;2.47;1.27;;;31.30;93.20;;;;;;5035185;28;20275;-79
2022/06/25 08:47:49;;;;;;;1.98;1.30;;;31.20;93.00;;;;;;5037915;28;20240;-79
2022/06/25 08:50:21;;;;;;;1.88;1.40;;;31.00;93.10;;;;;;5036996;28;20497;-80
2022/06/25 08:52:53;;;;;;;2.70;1.90;;;31.00;92.80;;;;;;5035694;28;20368;-78
2022/06/25 08:55:24;;;;;;;2.88;1.50;;;30.80;93.10;;;;;;5035096;28;20225;-78
2022/06/25 08:57:51;;;;;;;2.08;1.60;;;30.70;93.60;;;;;;5037150;28;20259;-79
2022/06/25 09:00:18;;;;;;;2.83;1.63;;;30.80;93.70;;;;;;5038685;28;20259;-79
2022/06/25 09:02:51;;;;;;;2.97;1.52;;;30.70;93.50;;;;;;5038458;28;20316;-79
2022/06/25 09:05:40;;;;;;;2.03;1.40;;;30.30;93.40;;;;;;5037481;28;20233;-78
2022/06/25 09:08:09;;;;;;;2.33;1.50;;;29.80;94.00;;;;;;5035336;28;20562;-78
2022/06/25 09:10:37;;;;;;;4.97;1.50;;;29.50;94.60;;;;;;5037207;28;20255;-81
2022/06/25 09:13:06;;;;;;;3.80;1.52;;;29.20;95.00;;;;;;5037414;28;20288;-79
2022/06/25 09:15:45;;;;;;;3.92;1.35;;;29.20;95.40;;;;;;5035650;28;20214;-79
2022/06/25 09:18:14;;;;;;;3.50;1.35;;;29.30;94.90;;;;;;5036180;28;20305;-79
2022/06/25 09:20:59;;;;;;;4.82;1.10;;;29.30;94.70;;;;;;5036422;28;20202;-80
2022/06/25 09:23:31;;;;;;;1.05;0.80;;;29.40;94.50;;;;;;5032657;28;20966;-80
2022/06/25 09:26:10;;;;;;;1.92;0.80;;;29.40;94.50;;;;;;5034341;28;20229;-80
2022/06/25 09:28:40;;;;;;;1.20;0.88;;;29.40;94.70;;;;;;5036567;28;20234;-80
2022/06/25 09:31:07;;;;;;;1.10;0.90;;;29.60;94.90;;;;;;5037313;28;20221;-79
2022/06/25 09:33:38;;;;;;;1.90;0.68;;;29.90;94.50;;;;;;5034594;28;20332;-80
2022/06/25 09:36:07;;;;;;;1.58;0.77;;;30.00;93.90;;;;;;5035131;28;20590;-80
2022/06/25 09:38:34;;;;;;;1.73;0.93;;;29.90;93.80;;;;;;5036587;28;20953;-81
2022/06/25 09:41:01;;;;;;;1.02;0.85;;;29.60;93.70;;;;;;5037116;28;20210;-80
2022/06/25 09:43:35;;;;;;;1.33;0.82;;;29.20;93.70;;;;;;5038855;28;20544;-80
2022/06/25 09:46:04;;;;;;;2.35;0.85;;;28.70;94.20;;;;;;5039495;28;20234;-78
2022/06/25 09:48:33;;;;;;;1.60;0.90;;;28.30;94.80;;;;;;5040613;28;20275;-80
2022/06/25 09:51:19;;;;;;;1.38;0.90;;;28.20;95.30;;;;;;5040460;28;20209;-81
2022/06/25 09:53:53;;;;;;;1.98;0.85;;;28.20;95.50;;;;;;5040657;28;20232;-79
2022/06/25 09:56:22;;;;;;;1.40;0.88;;;27.90;95.40;;;;;;5038152;28;20218;-78
2022/06/25 09:58:50;;;;;;;1.40;0.98;;;27.80;95.80;;;;;;5038330;28;20222;-80
2022/06/25 10:01:22;;;;;;;3.22;1.10;;;27.40;96.50;;;;;;5042194;28;20197;-79
2022/06/25 10:03:50;;;;;;;3.00;1.40;;;27.20;97.00;;;;;;5040695;28;20309;-80
2022/06/25 10:06:19;;;;;;;4.10;1.40;;;26.90;97.40;;;;;;5038811;28;20237;-80
2022/06/25 10:08:58;;;;;;;2.72;1.20;;;26.80;97.80;;;;;;5037958;28;20271;-80
2022/06/25 10:11:28;;;;;;;1.20;1.02;;;26.70;98.20;;;;;;5038598;28;20225;-78
2022/06/25 10:13:56;;;;;;;1.67;1.52;;;26.50;98.60;;;;;;5036323;28;20291;-79
2022/06/25 10:16:25;;;;;;;4.18;1.20;;;26.50;99.00;;;;;;5040924;28;20216;-82
2022/06/25 10:18:53;;;;;;;6.65;1.40;;;26.50;99.20;;;;;;5039104;28;20769;-80
2022/06/25 10:21:22;;;;;;;1.60;1.40;;;26.50;99.40;;;;;;5037472;28;20552;-79
2022/06/25 10:23:56;;;;;;;1.52;1.38;;;26.40;99.50;;;;;;5041325;28;20551;-80
2022/06/25 10:26:24;;;;;;;4.45;1.63;;;26.30;99.80;;;;;;5038596;28;20221;-79
2022/06/25 10:28:51;;;;;;;2.50;1.27;;;26.40;99.80;;;;;;5039326;28;20213;-80
2022/06/25 10:31:19;;;;;;;3.13;1.17;;;26.40;99.90;;;;;;5039452;28;20209;-79
2022/06/25 10:34:02;;;;;;;2.15;1.77;;;26.20;99.90;;;;;;5037722;28;20221;-79
2022/06/25 10:36:49;;;;;;;2.58;1.38;;;26.10;99.90;;;;;;5039402;28;20216;-80
2022/06/25 10:39:25;;;;;;;2.97;1.02;;;25.90;99.90;;;;;;5039210;28;20214;-81
2022/06/25 10:45:11;;;;;;;1.90;1.13;;;26.20;99.90;;;;;;5039406;28;20241;-81
2022/06/25 10:47:41;;;;;;;3.05;1.27;;;26.00;99.90;;;;;;5036948;28;20236;-82
2022/06/25 10:50:20;;;;;;;2.42;1.45;;;25.90;99.90;;;;;;5039011;28;20919;-81
2022/06/25 10:53:03;;;;;;;2.67;1.40;;;25.70;99.90;;;;;;5036557;28;20210;-81
2022/06/25 10:55:30;;;;;;;2.72;1.70;;;25.60;99.90;;;;;;5037752;28;20674;-82
2022/06/25 10:58:10;;;;;;;2.67;1.40;;;25.40;99.90;;;;;;5040252;28;20645;-80
2022/06/25 11:01:01;;;;;;;1.77;1.38;;;25.50;99.90;;;;;;5041183;28;20275;-80
2022/06/25 11:03:28;;;;;;;3.20;1.55;;;25.60;99.90;;;;;;5038430;28;20321;-81
2022/06/25 11:05:56;;;;;;;3.05;1.58;;;25.60;99.90;;;;;;5037237;28;20525;-81
2022/06/25 11:08:34;;;;;;;5.07;2.00;;;25.70;99.90;;;;;;5039334;28;20688;-80
2022/06/25 11:11:00;;;;;;;2.80;2.22;;;25.80;99.90;;;;;;5038021;28;20546;-80
2022/06/25 11:13:27;;;;;;;2.30;1.50;;;25.90;99.90;;;;;;5038093;28;20213;-80
2022/06/25 11:15:55;;;;;;;2.65;1.52;;;25.90;99.90;;;;;;5039311;28;20227;-78
2022/06/25 11:18:22;;;;;;;3.15;1.30;;;26.00;99.90;;;;;;5036288;28;20312;-82
2022/06/25 11:20:49;;;;;;;1.90;1.40;;;26.10;99.90;;;;;;5036676;28;20602;-82
2022/06/25 11:23:16;;;;;;;2.05;1.40;;;26.10;99.90;;;;;;5036455;28;20241;-81
2022/06/25 11:28:47;;;;;;;4.55;1.45;;;26.20;99.90;;;;;;5035567;28;20260;-82
2022/06/25 11:31:16;;;;;;;1.85;1.75;;;26.10;99.90;;;;;;5036792;28;20221;-80
2022/06/25 11:33:46;;;;;;;1.85;1.67;;;26.20;99.90;;;;;;5040336;28;20225;-81
2022/06/25 11:36:14;;;;;;;3.70;1.80;;;26.20;99.90;;;;;;5036363;28;20210;-81
2022/06/25 11:38:52;;;;;;;3.25;1.45;;;26.20;99.90;;;;;;5038594;28;20217;-82
2022/06/25 11:41:23;;;;;;;2.15;1.67;;;26.20;99.90;;;;;;5036818;28;20228;-81
2022/06/25 11:43:50;;;;;;;4.53;1.73;;;26.10;99.90;;;;;;5037468;28;20608;-81
2022/06/25 11:46:19;;;;;;;2.47;1.60;;;26.10;99.90;;;;;;5039920;28;20276;-82
2022/06/25 11:48:47;;;;;;;1.52;1.42;;;26.00;99.90;;;;;;5035801;28;20225;-80
2022/06/25 11:51:23;;;;;;;2.40;1.33;;;26.00;99.90;;;;;;5037230;28;20214;-81
2022/06/25 11:53:52;;;;;;;2.40;1.75;;;26.00;99.90;;;;;;5044041;28;20270;-81
2022/06/25 11:56:19;;;;;;;2.08;1.40;;;26.00;99.90;;;;;;5036665;28;20214;-81
2022/06/25 11:58:47;;;;;;;2.50;1.35;;;26.10;99.90;;;;;;5039230;28;20205;-80
2022/06/25 12:01:16;;;;;;;1.83;1.73;;;26.20;99.90;;;;;;5039702;28;20201;-81
2022/06/25 12:03:43;;;;;;;2.83;1.60;;;26.30;99.90;;;;;;5036877;28;20241;-81
2022/06/25 12:06:11;;;;;;;1.67;1.50;;;26.50;99.90;;;;;;5036988;28;20237;-81
2022/06/25 12:08:38;;;;;;;4.90;1.50;;;26.50;99.90;;;;;;5041810;28;20542;-82
2022/06/25 12:11:05;;;;;;;2.40;1.50;;;26.70;99.90;;;;;;5040523;28;20205;-80
2022/06/25 12:13:32;;;;;;;3.00;1.40;;;27.00;99.90;;;;;;5039023;28;20670;-82
2022/06/25 12:16:04;;;;;;;1.73;1.50;;;27.20;99.90;;;;;;5038689;28;20636;-79
2022/06/25 12:18:39;;;;;;;3.22;1.33;;;27.20;99.90;;;;;;5040642;28;20224;-80
2022/06/25 12:21:08;;;;;;;1.55;1.35;;;27.40;99.90;;;;;;5036440;28;20213;-80
2022/06/25 12:23:55;;;;;;;2.38;1.45;;;27.60;99.90;;;;;;5035100;28;20543;-82
2022/06/25 12:26:33;;;;;;;3.85;1.45;;;27.90;99.90;;;;;;5033507;28;20213;-80
2022/06/25 12:29:20;;;;;;;1.48;1.20;;;28.00;99.90;;;;;;5039610;28;20746;-81
2022/06/25 12:32:01;;;;;;;2.08;1.40;;;27.80;99.90;;;;;;5036456;28;20685;-81
2022/06/25 12:34:48;;;;;;;2.58;1.20;;;27.50;99.90;;;;;;5036897;28;20251;-81
2022/06/25 12:37:32;;;;;;;1.40;1.20;;;27.50;99.90;;;;;;5037686;28;20214;-83
2022/06/25 12:40:00;;;;;;;2.38;1.58;;;27.40;99.90;;;;;;5035816;28;20322;-83
2022/06/25 12:42:28;;;;;;;2.95;1.38;;;27.30;99.90;;;;;;5035775;28;20216;-82
2022/06/25 12:44:56;;;;;;;1.52;1.42;;;27.30;99.90;;;;;;5039014;28;20213;-80
2022/06/25 12:47:23;;;;;;;2.50;1.50;;;27.20;99.90;;;;;;5036480;28;20243;-82
2022/06/25 12:49:56;;;;;;;1.50;1.30;;;27.30;99.90;;;;;;5037076;28;20205;-84
2022/06/25 12:52:26;;;;;;;1.85;1.58;;;27.40;99.90;;;;;;5034817;28;20701;-82
2022/06/25 12:54:56;;;;;;;3.25;1.40;;;27.60;99.90;;;;;;5034633;28;20300;-81
2022/06/25 12:57:27;;;;;;;2.55;1.30;;;27.80;99.90;;;;;;5038766;28;20617;-82
2022/06/25 12:59:55;;;;;;;1.98;1.27;;;28.00;99.90;;;;;;5036451;28;20313;-81
2022/06/25 13:02:31;;;;;;;3.05;1.67;;;28.10;99.90;;;;;;5040283;28;20218;-81
2022/06/25 13:04:59;;;;;;;2.88;1.63;;;28.20;99.90;;;;;;5040478;28;20655;-82
2022/06/25 13:07:26;;;;;;;1.63;1.50;;;28.30;99.70;;;;;;5027667;28;20233;-82
2022/06/25 13:09:53;;;;;;;1.45;1.35;;;28.30;99.60;;;;;;5027982;28;20263;-83
2022/06/25 13:12:25;;;;;;;3.90;1.63;;;28.40;99.30;;;;;;5027735;28;20300;-83
2022/06/25 13:14:52;;;;;;;3.38;1.50;;;28.40;99.20;;;;;;5033853;28;20206;-85
2022/06/25 13:17:21;;;;;;;2.45;1.10;;;28.50;98.90;;;;;;5030830;28;20645;-87